createdAt,value
2022-08-19T00:00:45.416Z,25.50
2022-08-19T00:03:21.088Z,25.50
2022-08-19T00:05:56.473Z,25.50
2022-08-19T00:08:33.483Z,25.50
2022-08-19T00:11:09.410Z,25.50
2022-08-19T00:13:53.534Z,25.40
2022-08-19T00:16:28.649Z,25.40
2022-08-19T00:19:04.409Z,25.40
2022-08-19T00:21:40.901Z,25.40
2022-08-19T00:24:18.980Z,25.30
2022-08-19T00:26:55.544Z,25.30
2022-08-19T00:29:31.534Z,25.20
2022-08-19T00:32:10.705Z,25.20
2022-08-19T00:34:46.608Z,25.10
2022-08-19T00:37:24.201Z,25.10
2022-08-19T00:40:01.474Z,25.10
2022-08-19T00:42:36.669Z,25.10
2022-08-19T00:45:14.867Z,25.00
2022-08-19T00:47:49.945Z,25.00
2022-08-19T00:50:24.997Z,24.90
2022-08-19T00:53:05.533Z,24.90
2022-08-19T00:55:43.675Z,24.90
2022-08-19T00:58:19.657Z,24.80
2022-08-19T01:01:04.301Z,24.70
2022-08-19T01:03:58.185Z,24.70
2022-08-19T01:06:34.993Z,24.70
2022-08-19T01:09:09.491Z,24.60
2022-08-19T01:11:48.113Z,24.50
2022-08-19T01:14:23.227Z,24.60
2022-08-19T01:17:01.404Z,24.50
2022-08-19T01:19:43.806Z,24.40
2022-08-19T01:22:27.695Z,24.30
2022-08-19T01:25:14.940Z,24.30
2022-08-19T01:27:53.528Z,24.30
2022-08-19T01:30:29.666Z,24.30
2022-08-19T01:33:06.346Z,24.20
2022-08-19T01:35:41.313Z,24.10
2022-08-19T01:38:24.814Z,24.20
2022-08-19T01:41:09.732Z,24.10
2022-08-19T01:44:13.746Z,24.10
2022-08-19T01:46:39.305Z,24.10
2022-08-19T01:49:14.363Z,24.10
2022-08-19T01:51:51.342Z,24.10
2022-08-19T01:54:27.395Z,24.10
2022-08-19T01:57:07.813Z,24.10
2022-08-19T01:59:42.865Z,24.10
2022-08-19T02:02:17.209Z,24.00
2022-08-19T02:04:51.459Z,24.00
2022-08-19T02:07:26.695Z,24.00
2022-08-19T02:10:03.725Z,23.90
2022-08-19T02:12:47.649Z,23.90
2022-08-19T02:15:23.131Z,23.90
2022-08-19T02:17:57.721Z,23.90
2022-08-19T02:20:32.809Z,23.90
2022-08-19T02:23:13.761Z,23.90
2022-08-19T02:25:53.977Z,23.80
2022-08-19T02:28:33.559Z,23.90
2022-08-19T02:31:13.114Z,23.70
2022-08-19T02:33:47.680Z,23.70
2022-08-19T02:36:22.915Z,23.60
2022-08-19T02:38:55.543Z,23.70
2022-08-19T02:41:32.258Z,23.70
2022-08-19T02:44:25.653Z,23.60
2022-08-19T02:47:05.261Z,23.60
2022-08-19T02:49:40.030Z,23.60
2022-08-19T02:52:14.137Z,23.50
2022-08-19T02:54:48.144Z,23.50
2022-08-19T02:57:25.319Z,23.40
2022-08-19T03:00:04.099Z,23.40
2022-08-19T03:02:41.214Z,23.40
2022-08-19T03:05:15.478Z,23.40
2022-08-19T03:07:51.324Z,23.40
2022-08-19T03:10:26.099Z,23.40
2022-08-19T03:13:00.202Z,23.30
2022-08-19T03:15:43.888Z,23.20
2022-08-19T03:18:18.684Z,23.20
2022-08-19T03:20:55.737Z,23.20
2022-08-19T03:23:30.887Z,23.20
2022-08-19T03:26:16.800Z,23.10
2022-08-19T03:28:58.216Z,23.10
2022-08-19T03:31:44.610Z,23.00
2022-08-19T03:34:27.533Z,23.00
2022-08-19T03:37:04.709Z,22.90
2022-08-19T03:39:42.050Z,22.90
2022-08-19T03:42:38.813Z,22.90
2022-08-19T03:45:14.123Z,22.80
2022-08-19T03:47:52.194Z,22.80
2022-08-19T03:50:26.568Z,22.80
2022-08-19T03:53:02.361Z,22.80
2022-08-19T03:55:36.756Z,22.80
2022-08-19T03:58:12.228Z,22.70
2022-08-19T04:00:49.543Z,22.70
2022-08-19T04:03:28.012Z,22.70
2022-08-19T04:06:02.127Z,22.60
2022-08-19T04:08:36.657Z,22.60
2022-08-19T04:11:12.131Z,22.70
2022-08-19T04:13:48.224Z,22.70
2022-08-19T04:16:22.385Z,22.70
2022-08-19T04:19:11.809Z,22.80
2022-08-19T04:21:47.763Z,22.70
2022-08-19T04:24:22.612Z,22.70
2022-08-19T04:26:57.699Z,22.80
2022-08-19T04:29:32.840Z,22.80
2022-08-19T04:32:09.789Z,22.90
2022-08-19T04:35:01.589Z,22.90
2022-08-19T04:37:42.881Z,23.00
2022-08-19T04:40:29.621Z,23.10
2022-08-19T04:43:04.279Z,23.20
2022-08-19T04:45:43.969Z,23.40
2022-08-19T04:48:27.981Z,23.40
2022-08-19T04:51:08.003Z,23.40
2022-08-19T04:53:44.374Z,23.60
2022-08-19T04:56:23.190Z,23.70
2022-08-19T04:58:57.723Z,23.90
2022-08-19T05:01:33.509Z,23.90
2022-08-19T05:04:09.009Z,24.00
2022-08-19T05:06:48.484Z,24.00
2022-08-19T05:09:26.097Z,24.00
2022-08-19T05:12:02.982Z,24.10
2022-08-19T05:14:37.996Z,24.10
2022-08-19T05:17:27.281Z,24.20
2022-08-19T05:20:14.594Z,24.20
2022-08-19T05:22:56.245Z,24.30
2022-08-19T05:25:30.306Z,24.40
2022-08-19T05:28:04.773Z,24.30
2022-08-19T05:30:47.243Z,24.40
2022-08-19T05:33:22.831Z,24.40
2022-08-19T05:35:57.752Z,24.40
2022-08-19T05:38:36.650Z,24.40
2022-08-19T05:41:12.194Z,24.50
2022-08-19T05:43:44.900Z,24.50
2022-08-19T05:46:28.060Z,24.50
2022-08-19T05:49:05.548Z,24.50
2022-08-19T05:51:42.368Z,24.50
2022-08-19T05:54:20.526Z,24.60
2022-08-19T05:56:55.640Z,24.70
2022-08-19T05:59:29.805Z,24.80
2022-08-19T06:02:07.693Z,24.90
2022-08-19T06:04:44.057Z,25.00
2022-08-19T06:07:18.309Z,25.10
2022-08-19T06:10:00.607Z,25.20
2022-08-19T06:12:37.107Z,25.30
2022-08-19T06:15:13.156Z,25.30
2022-08-19T06:17:48.424Z,25.40
2022-08-19T06:20:45.927Z,25.40
2022-08-19T06:23:24.424Z,25.50
2022-08-19T06:26:02.800Z,25.70
2022-08-19T06:28:38.103Z,25.90
2022-08-19T06:31:15.254Z,26.00
2022-08-19T06:33:50.248Z,26.20
2022-08-19T06:36:28.742Z,26.40
2022-08-19T06:39:03.517Z,26.60
2022-08-19T06:41:47.621Z,26.80
2022-08-19T06:44:27.650Z,27.00
2022-08-19T06:47:14.321Z,27.20
2022-08-19T06:49:49.622Z,27.40
2022-08-19T06:52:25.021Z,27.60
2022-08-19T06:55:01.470Z,27.60
2022-08-19T06:57:39.504Z,27.70
2022-08-19T07:00:15.616Z,27.80
2022-08-19T07:02:59.092Z,28.00
2022-08-19T07:05:36.166Z,28.30
2022-08-19T07:08:15.222Z,28.60
2022-08-19T07:10:51.376Z,28.80
2022-08-19T07:13:29.841Z,29.10
2022-08-19T07:16:08.614Z,29.30
2022-08-19T07:18:44.383Z,29.60
2022-08-19T07:21:23.270Z,29.70
2022-08-19T07:24:05.386Z,29.90
2022-08-19T07:26:44.428Z,30.10
2022-08-19T07:29:25.798Z,30.40
2022-08-19T07:32:11.513Z,30.70
2022-08-19T07:34:47.637Z,30.90
2022-08-19T07:37:23.298Z,31.10
2022-08-19T07:39:58.561Z,31.30
2022-08-19T07:42:32.905Z,31.40
2022-08-19T07:45:12.407Z,31.50
2022-08-19T07:47:51.250Z,31.70
2022-08-19T07:50:26.731Z,31.90
2022-08-19T07:53:01.279Z,32.10
2022-08-19T07:55:40.077Z,32.30
2022-08-19T07:58:18.745Z,32.50
2022-08-19T08:00:57.063Z,32.70
2022-08-19T08:03:44.384Z,32.80
2022-08-19T08:06:30.711Z,32.90
2022-08-19T08:12:33.767Z,32.70
2022-08-19T08:15:13.345Z,32.50
2022-08-19T08:17:53.626Z,32.40
2022-08-19T08:20:31.101Z,32.30
2022-08-19T08:23:18.193Z,32.10
2022-08-19T08:25:53.749Z,32.10
2022-08-19T08:28:31.227Z,32.30
2022-08-19T08:31:09.567Z,32.60
2022-08-19T08:33:47.769Z,33.00
2022-08-19T08:36:22.994Z,33.30
2022-08-19T08:41:36.405Z,33.90
2022-08-19T08:44:17.271Z,34.00
2022-08-19T08:46:56.204Z,33.90
2022-08-19T08:49:41.193Z,33.90
2022-08-19T08:52:21.273Z,33.70
2022-08-19T08:54:57.773Z,33.60
2022-08-19T08:57:41.017Z,33.60
2022-08-19T09:00:21.335Z,33.80
2022-08-19T09:02:56.212Z,33.90
2022-08-19T09:05:39.644Z,34.20
2022-08-19T09:08:24.168Z,34.40
2022-08-19T09:10:59.226Z,34.70
2022-08-19T09:13:37.481Z,34.80
2022-08-19T09:16:15.366Z,34.90
2022-08-19T09:18:54.288Z,35.00
2022-08-19T09:21:34.238Z,35.00
2022-08-19T09:24:09.734Z,35.10
2022-08-19T09:26:48.556Z,35.30
2022-08-19T09:29:31.687Z,35.30
2022-08-19T09:32:06.687Z,35.40
2022-08-19T09:35:01.671Z,35.40
2022-08-19T09:37:44.076Z,35.50
2022-08-19T09:40:21.913Z,35.50
2022-08-19T09:43:10.251Z,35.50
2022-08-19T09:45:54.927Z,35.70
2022-08-19T09:48:30.176Z,35.80
2022-08-19T09:51:01.555Z,35.60
2022-08-19T09:53:39.824Z,35.60
2022-08-19T09:56:15.657Z,35.60
2022-08-19T09:58:55.402Z,35.60
2022-08-19T10:01:30.434Z,35.60
2022-08-19T10:04:19.750Z,35.60
2022-08-19T10:06:58.132Z,35.50
2022-08-19T10:09:37.785Z,35.60
2022-08-19T10:12:15.501Z,35.60
2022-08-19T10:14:55.674Z,35.50
2022-08-19T10:17:31.659Z,35.50
2022-08-19T10:20:10.947Z,35.30
2022-08-19T10:22:45.460Z,35.20
2022-08-19T10:25:25.043Z,35.40
2022-08-19T10:28:00.457Z,35.40
2022-08-19T10:30:36.410Z,35.50
2022-08-19T10:33:11.260Z,35.30
2022-08-19T10:35:56.742Z,35.20
2022-08-19T10:38:33.191Z,35.20
2022-08-19T10:41:18.396Z,35.00
2022-08-19T10:43:55.989Z,34.90
2022-08-19T10:46:33.828Z,34.80
2022-08-19T10:49:09.331Z,34.90
2022-08-19T10:51:59.039Z,35.00
2022-08-19T10:54:46.248Z,35.10
2022-08-19T10:57:46.042Z,35.10
2022-08-19T11:00:25.711Z,35.10
2022-08-19T11:03:00.933Z,35.20
2022-08-19T11:05:40.431Z,35.20
2022-08-19T11:08:23.074Z,35.20
2022-08-19T11:11:05.383Z,35.20
2022-08-19T11:13:44.024Z,35.30
2022-08-19T11:16:19.662Z,35.40
2022-08-19T11:18:59.533Z,35.40
2022-08-19T11:21:35.725Z,35.30
2022-08-19T11:24:12.754Z,35.40
2022-08-19T11:26:49.670Z,35.50
2022-08-19T11:29:29.906Z,35.50
2022-08-19T11:32:06.099Z,35.40
2022-08-19T11:34:41.205Z,35.30
2022-08-19T11:37:17.016Z,35.10
2022-08-19T11:39:53.814Z,35.10
2022-08-19T11:42:40.703Z,35.00
2022-08-19T11:45:18.559Z,34.90
2022-08-19T11:47:54.421Z,35.00
2022-08-19T11:50:34.679Z,35.00
2022-08-19T11:53:11.212Z,35.10
2022-08-19T11:55:47.175Z,35.10
2022-08-19T11:58:21.743Z,35.10
2022-08-19T12:01:00.915Z,35.10
2022-08-19T12:03:36.576Z,35.00
2022-08-19T12:06:13.133Z,35.10
2022-08-19T12:08:49.142Z,35.10
2022-08-19T12:11:21.455Z,35.10
2022-08-19T12:13:57.046Z,35.10
2022-08-19T12:16:36.205Z,35.30
2022-08-19T12:19:14.606Z,35.20
2022-08-19T12:21:58.550Z,35.20
2022-08-19T12:24:36.520Z,35.20
2022-08-19T12:27:12.801Z,35.30
2022-08-19T12:29:47.675Z,35.20
2022-08-19T12:32:27.850Z,35.20
2022-08-19T12:35:05.893Z,35.30
2022-08-19T12:37:40.521Z,35.40
2022-08-19T12:40:16.537Z,35.40
2022-08-19T12:42:52.372Z,35.40
2022-08-19T12:45:27.646Z,35.30
2022-08-19T12:48:07.962Z,35.30
2022-08-19T12:50:59.679Z,35.30
2022-08-19T12:53:35.349Z,35.20
2022-08-19T12:56:15.965Z,35.20
2022-08-19T12:58:52.895Z,35.10
2022-08-19T13:01:29.161Z,35.10
2022-08-19T13:04:07.634Z,35.10
2022-08-19T13:06:43.898Z,35.10
2022-08-19T13:09:18.753Z,35.20
2022-08-19T13:11:53.526Z,35.10
2022-08-19T13:14:28.781Z,35.00
2022-08-19T13:17:05.959Z,35.00
2022-08-19T13:19:44.465Z,34.90
2022-08-19T13:22:19.707Z,34.80
2022-08-19T13:24:56.117Z,34.60
2022-08-19T13:27:30.459Z,34.50
2022-08-19T13:30:17.487Z,34.50
2022-08-19T13:33:05.204Z,34.50
2022-08-19T13:35:42.805Z,34.40
2022-08-19T13:38:18.762Z,34.50
2022-08-19T13:40:54.334Z,34.50
2022-08-19T13:43:30.544Z,34.40
2022-08-19T13:46:13.683Z,34.30
2022-08-19T13:48:49.286Z,34.30
2022-08-19T13:51:27.156Z,34.20
2022-08-19T13:54:01.421Z,34.10
2022-08-19T13:56:39.394Z,34.00
2022-08-19T13:59:14.230Z,33.90
2022-08-19T14:01:48.528Z,33.80
2022-08-19T14:04:23.802Z,33.80
2022-08-19T14:07:02.853Z,33.70
2022-08-19T14:09:38.500Z,33.60
2022-08-19T14:12:13.615Z,33.50
2022-08-19T14:14:48.581Z,33.50
2022-08-19T14:17:26.422Z,33.50
2022-08-19T14:20:10.858Z,33.40
2022-08-19T14:22:50.894Z,33.40
2022-08-19T14:25:27.418Z,33.30
2022-08-19T14:28:02.661Z,33.20
2022-08-19T14:30:40.462Z,33.10
2022-08-19T14:33:15.496Z,33.00
2022-08-19T14:35:49.661Z,33.00
2022-08-19T14:38:28.165Z,32.90
2022-08-19T14:41:18.595Z,32.80
2022-08-19T14:43:54.714Z,32.70
2022-08-19T14:46:30.839Z,32.80
2022-08-19T14:49:09.353Z,32.70
2022-08-19T14:51:44.487Z,32.60
2022-08-19T14:54:21.652Z,32.50
2022-08-19T14:57:00.836Z,32.50
2022-08-19T14:59:39.597Z,32.30
2022-08-19T15:02:33.642Z,32.30
2022-08-19T15:05:12.215Z,32.20
2022-08-19T15:07:46.947Z,32.10
2022-08-19T15:10:25.677Z,32.00
2022-08-19T15:13:01.711Z,31.90
2022-08-19T15:15:38.626Z,31.70
2022-08-19T15:18:14.878Z,31.60
2022-08-19T15:20:50.188Z,31.60
2022-08-19T15:23:28.413Z,31.50
2022-08-19T15:26:06.643Z,31.40
2022-08-19T15:28:42.346Z,31.30
2022-08-19T15:31:25.166Z,31.30
2022-08-19T15:34:02.372Z,31.20
2022-08-19T15:36:37.319Z,31.10
2022-08-19T15:39:11.854Z,31.10
2022-08-19T15:41:50.015Z,31.10
2022-08-19T15:44:25.662Z,30.90
2022-08-19T15:47:01.797Z,30.80
2022-08-19T15:49:36.886Z,30.70
2022-08-19T15:52:13.032Z,30.60
2022-08-19T15:54:50.783Z,30.50
2022-08-19T15:57:44.547Z,30.50
2022-08-19T16:00:30.371Z,30.40
2022-08-19T16:03:18.052Z,30.30
2022-08-19T16:06:05.973Z,30.20
2022-08-19T16:08:48.833Z,30.10
2022-08-19T16:11:29.496Z,30.10
2022-08-19T16:14:24.178Z,30.10
2022-08-19T16:16:58.813Z,30.00
2022-08-19T16:19:33.768Z,29.90
2022-08-19T16:22:10.625Z,29.90
2022-08-19T16:24:53.012Z,29.90
